Time;durP1;ratioP1;P1;durP2;ratioP2;P2;SDS_P1;SDS_P2;PMS_P1;PMS_P2;Temp;Humidity;BMP_temperature;BMP_pressure;BME280_temperature;BME280_humidity;BME280_pressure;Samples;Min_cycle;Max_cycle;Signal;HPM_P1;HPM_P2
2021/04/24 00:01:16;;;;;;;3.05;2.47;;;9.10;99.90;;;;;;5039395;28;20514;-76
2021/04/24 00:03:43;;;;;;;5.60;2.60;;;9.40;99.90;;;;;;5033550;28;20438;-75
2021/04/24 00:06:09;;;;;;;4.20;2.42;;;9.40;99.90;;;;;;5037295;28;20032;-75
2021/04/24 00:08:34;;;;;;;4.68;2.50;;;9.40;99.90;;;;;;5034715;28;20025;-75
2021/04/24 00:11:01;;;;;;;3.75;2.75;;;9.30;99.90;;;;;;5036015;28;20014;-75
2021/04/24 00:13:27;;;;;;;3.60;2.72;;;9.00;99.90;;;;;;5038581;28;20067;-75
2021/04/24 00:15:52;;;;;;;2.67;2.47;;;8.80;99.90;;;;;;5039291;28;20530;-76
2021/04/24 00:18:18;;;;;;;4.15;3.10;;;8.80;99.90;;;;;;5036291;28;20063;-75
2021/04/24 00:20:44;;;;;;;5.55;2.83;;;8.70;99.90;;;;;;5034445;28;20024;-75
2021/04/24 00:23:11;;;;;;;3.40;2.95;;;8.60;99.90;;;;;;5037129;28;20026;-75
2021/04/24 00:25:37;;;;;;;3.15;2.80;;;8.70;99.90;;;;;;5030495;28;20071;-75
2021/04/24 00:28:04;;;;;;;2.78;2.58;;;8.80;99.90;;;;;;5034335;28;20023;-76
2021/04/24 00:30:29;;;;;;;3.28;2.67;;;8.60;99.90;;;;;;5035531;28;20041;-75
2021/04/24 00:32:55;;;;;;;4.88;3.15;;;8.50;99.90;;;;;;5051400;28;20017;-75
2021/04/24 00:35:22;;;;;;;2.85;2.30;;;8.40;99.90;;;;;;5055213;28;20514;-75
2021/04/24 00:37:48;;;;;;;2.60;2.40;;;8.50;99.90;;;;;;5055136;28;20032;-75
2021/04/24 00:40:16;;;;;;;4.15;2.50;;;8.70;99.90;;;;;;5055296;28;20025;-75
2021/04/24 00:42:42;;;;;;;4.35;2.97;;;8.50;99.90;;;;;;5055380;28;20029;-75
2021/04/24 00:45:11;;;;;;;2.95;2.65;;;8.20;99.90;;;;;;5055264;28;20103;-75
2021/04/24 00:47:37;;;;;;;3.05;2.75;;;8.10;99.90;;;;;;5052791;28;20032;-75
2021/04/24 00:50:05;;;;;;;3.28;2.97;;;8.20;99.90;;;;;;5035281;28;20033;-75
2021/04/24 00:52:31;;;;;;;3.90;2.60;;;7.70;99.90;;;;;;5053848;28;20021;-75
2021/04/24 00:54:56;;;;;;;5.15;4.63;;;7.70;99.90;;;;;;5054659;28;20039;-75
2021/04/24 00:57:22;;;;;;;3.90;3.13;;;7.70;99.90;;;;;;5048640;28;20029;-76
2021/04/24 00:59:48;;;;;;;6.63;4.03;;;7.50;99.90;;;;;;5047531;28;20033;-75
2021/04/24 01:02:15;;;;;;;3.42;2.95;;;7.60;99.90;;;;;;5053640;28;20089;-76
2021/04/24 01:04:42;;;;;;;2.90;2.67;;;7.40;99.90;;;;;;5052163;28;20029;-75
2021/04/24 01:07:08;;;;;;;2.83;2.50;;;7.30;99.90;;;;;;5053161;28;20025;-75
2021/04/24 01:09:34;;;;;;;4.05;3.65;;;7.30;99.90;;;;;;5053050;28;20391;-76
2021/04/24 01:12:00;;;;;;;5.05;3.13;;;7.60;99.90;;;;;;5053537;28;20032;-75
2021/04/24 01:14:26;;;;;;;3.17;2.80;;;7.60;99.90;;;;;;5052563;28;20032;-75
2021/04/24 01:16:52;;;;;;;5.18;3.33;;;7.60;99.90;;;;;;5052802;28;20044;-75
2021/04/24 01:19:23;;;;;;;3.08;2.50;;;7.70;99.90;;;;;;5053109;28;20028;-75
2021/04/24 01:21:51;;;;;;;3.97;2.67;;;7.90;99.90;;;;;;5033722;28;20032;-76
2021/04/24 01:24:19;;;;;;;2.83;2.63;;;7.70;99.90;;;;;;5033444;28;20029;-75
2021/04/24 01:26:45;;;;;;;3.47;2.60;;;7.50;99.90;;;;;;5038653;28;20025;-76
2021/04/24 01:29:11;;;;;;;3.05;2.70;;;7.70;99.90;;;;;;5052444;28;20025;-75
2021/04/24 01:31:38;;;;;;;4.10;3.00;;;7.40;99.90;;;;;;5038419;28;20124;-75
2021/04/24 01:34:07;;;;;;;3.70;2.72;;;7.10;99.90;;;;;;5046777;28;20025;-75
2021/04/24 01:36:33;;;;;;;2.08;1.98;;;7.20;99.90;;;;;;5038678;28;20048;-75
2021/04/24 01:38:59;;;;;;;2.47;2.28;;;7.30;99.90;;;;;;5033070;28;20030;-76
2021/04/24 01:41:25;;;;;;;5.03;2.97;;;7.30;99.90;;;;;;5033250;28;20038;-75
2021/04/24 01:43:52;;;;;;;3.17;2.88;;;7.20;99.90;;;;;;5046288;28;20542;-75
2021/04/24 01:46:18;;;;;;;3.20;2.88;;;7.00;99.90;;;;;;5048026;28;20025;-75
2021/04/24 01:48:45;;;;;;;3.08;2.55;;;6.70;99.90;;;;;;5053040;28;20029;-76
2021/04/24 01:51:11;;;;;;;2.72;2.45;;;6.70;99.90;;;;;;5052780;28;20115;-75
2021/04/24 01:53:38;;;;;;;2.85;2.65;;;6.80;99.90;;;;;;5053103;28;20025;-76
2021/04/24 01:56:05;;;;;;;3.78;2.90;;;6.90;99.90;;;;;;5052705;28;20032;-75
2021/04/24 01:58:31;;;;;;;2.78;2.58;;;6.80;99.90;;;;;;5036980;28;20025;-75
2021/04/24 02:01:00;;;;;;;2.83;2.60;;;6.50;99.90;;;;;;5015507;28;912321;-75
2021/04/24 02:03:28;;;;;;;3.05;2.70;;;6.50;99.90;;;;;;5053153;28;20029;-75
2021/04/24 02:05:54;;;;;;;4.57;2.78;;;6.70;99.90;;;;;;5053662;28;20025;-75
2021/04/24 02:08:43;;;;;;;3.53;2.92;;;6.80;99.90;;;;;;5052930;28;20025;-75
2021/04/24 02:11:11;;;;;;;3.60;2.78;;;6.60;99.90;;;;;;5045038;28;20151;-76
2021/04/24 02:13:40;;;;;;;3.00;2.70;;;6.30;99.90;;;;;;5033642;28;20071;-75
2021/04/24 02:16:11;;;;;;;4.45;4.03;;;6.10;99.90;;;;;;5043036;28;20100;-75
2021/04/24 02:18:37;;;;;;;4.03;3.45;;;6.00;99.90;;;;;;5053167;28;20159;-75
2021/04/24 02:21:04;;;;;;;7.18;4.43;;;6.10;99.90;;;;;;5052807;28;20104;-75
2021/04/24 02:23:38;;;;;;;6.68;4.60;;;6.20;99.90;;;;;;5052838;28;20025;-75
2021/04/24 02:26:06;;;;;;;6.97;5.28;;;6.20;99.90;;;;;;5052087;28;20025;-75
2021/04/24 02:28:32;;;;;;;6.88;4.43;;;6.20;99.90;;;;;;5053077;28;20554;-75
2021/04/24 02:30:58;;;;;;;9.43;4.90;;;6.30;99.90;;;;;;5052974;28;20104;-75
2021/04/24 02:33:24;;;;;;;4.90;3.97;;;6.40;99.90;;;;;;5053022;28;20116;-75
2021/04/24 02:35:56;;;;;;;4.93;3.80;;;6.20;99.90;;;;;;5053123;28;20029;-75
2021/04/24 02:38:28;;;;;;;7.65;5.70;;;6.20;99.90;;;;;;5052390;28;20028;-75
2021/04/24 02:40:57;;;;;;;6.93;4.50;;;6.20;99.90;;;;;;5052993;28;20457;-75
2021/04/24 02:43:23;;;;;;;2.60;2.40;;;6.10;99.90;;;;;;5052828;28;20029;-75
2021/04/24 02:45:49;;;;;;;4.50;2.97;;;5.50;99.90;;;;;;5045871;28;20025;-75
2021/04/24 02:48:16;;;;;;;4.90;2.85;;;5.60;99.90;;;;;;5037406;28;20368;-75
2021/04/24 02:50:42;;;;;;;2.97;2.60;;;5.90;99.90;;;;;;5052884;28;20024;-75
2021/04/24 02:53:08;;;;;;;3.70;2.33;;;6.30;99.90;;;;;;5052018;28;20053;-75
2021/04/24 02:55:34;;;;;;;4.60;3.17;;;6.10;99.90;;;;;;5042345;28;20041;-76
2021/04/24 02:58:00;;;;;;;3.65;2.88;;;6.10;99.90;;;;;;5032826;28;20029;-75
2021/04/24 03:00:26;;;;;;;3.10;2.90;;;5.60;99.90;;;;;;5050251;28;20056;-75
2021/04/24 03:03:18;;;;;;;4.57;3.63;;;5.20;99.90;;;;;;5050835;28;20059;-75
2021/04/24 03:05:44;;;;;;;6.10;3.55;;;5.30;99.90;;;;;;5038847;28;20048;-75
2021/04/24 03:08:10;;;;;;;4.40;3.13;;;5.40;99.90;;;;;;5052119;28;20025;-75
2021/04/24 03:10:37;;;;;;;3.40;3.10;;;5.50;99.90;;;;;;5051921;28;20486;-75
2021/04/24 03:13:08;;;;;;;5.03;3.42;;;5.60;99.90;;;;;;5052465;28;20075;-75
2021/04/24 03:15:34;;;;;;;3.60;2.78;;;5.60;99.90;;;;;;5051161;28;20032;-75
2021/04/24 03:18:00;;;;;;;3.08;2.78;;;5.60;99.90;;;;;;5052015;28;20021;-75
2021/04/24 03:20:26;;;;;;;3.45;2.85;;;5.70;99.90;;;;;;5052141;28;20087;-75
2021/04/24 03:22:52;;;;;;;3.17;2.85;;;5.70;99.90;;;;;;5045059;28;20026;-75
2021/04/24 03:25:18;;;;;;;3.60;3.00;;;5.80;99.90;;;;;;5032421;28;20096;-75
2021/04/24 03:27:44;;;;;;;3.28;2.97;;;5.60;99.90;;;;;;5032095;28;20060;-75
2021/04/24 03:30:12;;;;;;;3.20;2.90;;;5.70;99.90;;;;;;5043348;28;20108;-75
2021/04/24 03:32:38;;;;;;;4.45;3.20;;;5.40;99.90;;;;;;5034844;28;20029;-75
2021/04/24 03:35:05;;;;;;;4.20;2.47;;;5.30;99.90;;;;;;5050933;28;20111;-75
2021/04/24 03:37:31;;;;;;;2.72;2.50;;;5.20;99.90;;;;;;5051723;28;20027;-75
2021/04/24 03:39:57;;;;;;;3.35;2.50;;;5.30;99.90;;;;;;5051543;28;20112;-75
2021/04/24 03:42:23;;;;;;;4.85;2.58;;;5.10;99.90;;;;;;5051738;28;20952;-75
2021/04/24 03:44:48;;;;;;;3.97;3.38;;;5.00;99.90;;;;;;5052274;28;20033;-75
2021/04/24 03:47:14;;;;;;;3.78;2.60;;;5.00;99.90;;;;;;5044272;28;20383;-75
2021/04/24 03:49:40;;;;;;;2.78;2.28;;;5.10;99.90;;;;;;5044050;28;20033;-75
2021/04/24 03:52:06;;;;;;;2.33;2.13;;;5.00;99.90;;;;;;5051874;28;20049;-75
2021/04/24 03:54:32;;;;;;;2.95;2.55;;;5.10;99.90;;;;;;5051800;28;20025;-75
2021/04/24 03:56:58;;;;;;;2.53;2.33;;;5.00;99.90;;;;;;5033260;28;20371;-75
2021/04/24 03:59:25;;;;;;;4.30;2.80;;;4.60;99.90;;;;;;5038173;28;20434;-75
2021/04/24 04:01:51;;;;;;;4.30;3.60;;;4.50;99.90;;;;;;5050827;28;20485;-75
2021/04/24 04:04:17;;;;;;;5.55;3.92;;;4.50;99.90;;;;;;5051856;28;20025;-75
2021/04/24 04:06:42;;;;;;;5.93;4.47;;;4.70;99.90;;;;;;5038904;28;20026;-75
2021/04/24 04:09:08;;;;;;;4.90;3.92;;;4.80;99.90;;;;;;5049770;28;20438;-75
2021/04/24 04:11:34;;;;;;;3.55;3.03;;;4.80;99.90;;;;;;5050470;28;20479;-75
2021/04/24 04:14:00;;;;;;;5.05;3.63;;;4.90;99.90;;;;;;5051723;28;20506;-75
2021/04/24 04:16:25;;;;;;;4.70;3.35;;;4.90;99.90;;;;;;5051892;28;20104;-75
2021/04/24 04:18:52;;;;;;;8.43;3.80;;;4.80;99.90;;;;;;5050506;28;20120;-75
2021/04/24 04:21:18;;;;;;;3.80;3.00;;;4.80;99.90;;;;;;5051731;28;20029;-75
2021/04/24 04:23:45;;;;;;;3.63;2.65;;;5.00;99.90;;;;;;5051341;28;20028;-75
2021/04/24 04:26:10;;;;;;;10.20;3.22;;;5.00;99.90;;;;;;5051491;28;20406;-75
2021/04/24 04:28:36;;;;;;;5.38;2.72;;;4.60;99.90;;;;;;5051551;28;20036;-75
2021/04/24 04:31:03;;;;;;;4.07;3.20;;;4.40;99.90;;;;;;5051646;28;20036;-75
2021/04/24 04:33:29;;;;;;;6.47;3.72;;;4.30;99.90;;;;;;5051430;28;20033;-75
2021/04/24 04:35:55;;;;;;;4.45;4.00;;;4.40;99.90;;;;;;5051509;28;20115;-75
2021/04/24 04:38:21;;;;;;;5.93;3.63;;;4.20;99.90;;;;;;5051638;28;20176;-75
2021/04/24 04:40:47;;;;;;;5.15;4.50;;;4.40;99.90;;;;;;5051029;28;20021;-75
2021/04/24 04:43:13;;;;;;;4.15;3.38;;;4.50;99.90;;;;;;5053338;28;20196;-75
2021/04/24 04:45:39;;;;;;;3.85;3.08;;;4.60;99.90;;;;;;5055044;28;20025;-75
2021/04/24 04:48:06;;;;;;;3.28;2.67;;;4.70;99.90;;;;;;5055189;28;20017;-75
2021/04/24 04:50:34;;;;;;;4.82;3.03;;;4.50;99.90;;;;;;5055184;28;20037;-75
2021/04/24 04:53:00;;;;;;;3.53;2.58;;;4.50;99.90;;;;;;5055062;28;20032;-75
2021/04/24 04:55:27;;;;;;;3.45;2.95;;;4.40;99.90;;;;;;5054719;28;20021;-75
2021/04/24 04:57:54;;;;;;;3.40;2.78;;;4.10;99.90;;;;;;5044116;28;20030;-75
2021/04/24 05:00:21;;;;;;;4.57;2.85;;;4.10;99.90;;;;;;5034723;28;20091;-75
2021/04/24 05:02:48;;;;;;;2.60;2.40;;;4.40;99.90;;;;;;5034853;28;20033;-75
2021/04/24 05:05:15;;;;;;;2.45;2.25;;;4.60;99.90;;;;;;5034958;28;20044;-75
2021/04/24 05:07:45;;;;;;;3.47;3.05;;;4.40;99.90;;;;;;5034736;28;20028;-75
2021/04/24 05:10:11;;;;;;;3.72;2.50;;;4.10;99.90;;;;;;5034535;28;20113;-75
2021/04/24 05:12:37;;;;;;;4.35;2.67;;;3.90;99.90;;;;;;5034745;28;20029;-75
2021/04/24 05:15:04;;;;;;;3.42;2.42;;;4.10;99.90;;;;;;5034722;28;20087;-75
2021/04/24 05:17:30;;;;;;;2.75;2.50;;;3.90;99.90;;;;;;5034860;28;20379;-74
2021/04/24 05:19:56;;;;;;;2.70;2.50;;;3.80;99.90;;;;;;5034562;28;20083;-75
2021/04/24 05:22:21;;;;;;;3.35;2.90;;;3.80;99.90;;;;;;5034641;28;20112;-75
2021/04/24 05:24:47;;;;;;;3.72;2.88;;;4.00;99.90;;;;;;5034125;28;20026;-75
2021/04/24 05:27:13;;;;;;;3.58;2.40;;;4.00;99.90;;;;;;5033301;28;20033;-75
2021/04/24 05:29:39;;;;;;;3.80;2.60;;;4.00;99.90;;;;;;5034370;28;20163;-75
2021/04/24 05:32:05;;;;;;;3.10;2.78;;;4.10;99.90;;;;;;5034474;28;20541;-75
2021/04/24 05:34:32;;;;;;;3.15;2.85;;;4.20;99.90;;;;;;5034242;28;20526;-75
2021/04/24 05:36:58;;;;;;;2.92;2.63;;;4.50;99.90;;;;;;5034179;28;20028;-75
2021/04/24 05:39:24;;;;;;;3.08;2.78;;;4.60;99.90;;;;;;5034108;28;20059;-75
2021/04/24 05:41:50;;;;;;;2.75;2.55;;;4.60;99.90;;;;;;5034158;28;20037;-74
2021/04/24 05:44:16;;;;;;;3.60;2.95;;;4.30;99.90;;;;;;5034234;28;20068;-75
2021/04/24 05:46:42;;;;;;;2.42;2.22;;;4.20;99.90;;;;;;5033539;28;20025;-75
2021/04/24 05:49:10;;;;;;;3.00;2.70;;;4.20;99.90;;;;;;5032459;28;20091;-75
2021/04/24 05:51:41;;;;;;;5.43;2.65;;;4.40;99.90;;;;;;5045865;28;20094;-75
2021/04/24 05:54:07;;;;;;;3.55;3.20;;;4.30;99.90;;;;;;5035008;28;20423;-75
2021/04/24 05:56:33;;;;;;;3.38;3.08;;;4.30;99.90;;;;;;5032853;28;20032;-75
2021/04/24 05:58:58;;;;;;;4.28;2.55;;;4.70;99.90;;;;;;5031411;28;20447;-75
2021/04/24 06:01:24;;;;;;;3.13;2.72;;;4.80;99.90;;;;;;5034360;28;20466;-75
2021/04/24 06:03:53;;;;;;;5.13;2.70;;;5.10;99.90;;;;;;5032609;28;20030;-75
2021/04/24 06:06:19;;;;;;;3.50;2.35;;;5.10;99.90;;;;;;5035022;28;20036;-75
2021/04/24 06:08:45;;;;;;;3.15;2.47;;;5.00;99.90;;;;;;5032038;28;20384;-75
2021/04/24 06:11:11;;;;;;;2.67;2.47;;;5.00;99.90;;;;;;5032475;28;20022;-75
2021/04/24 06:13:37;;;;;;;3.80;2.67;;;5.00;99.90;;;;;;5063551;28;20021;-75
2021/04/24 06:16:03;;;;;;;3.15;2.78;;;5.20;99.90;;;;;;5030008;28;20395;-75
2021/04/24 06:18:29;;;;;;;4.68;2.72;;;5.50;99.90;;;;;;5032178;28;20026;-75
2021/04/24 06:20:54;;;;;;;3.35;2.88;;;5.70;99.90;;;;;;5031111;28;20021;-76
2021/04/24 06:23:20;;;;;;;3.47;2.70;;;6.10;99.90;;;;;;5031506;28;20484;-76
2021/04/24 06:25:46;;;;;;;2.83;2.45;;;6.20;99.90;;;;;;5039435;28;20045;-75
2021/04/24 06:28:11;;;;;;;3.95;2.55;;;6.40;99.90;;;;;;5050277;28;20025;-75
2021/04/24 06:30:37;;;;;;;3.10;2.83;;;6.50;99.90;;;;;;5034807;28;20045;-75
2021/04/24 06:33:05;;;;;;;2.97;2.15;;;6.70;99.90;;;;;;5031408;28;20033;-75
2021/04/24 06:35:31;;;;;;;2.22;2.03;;;6.90;99.90;;;;;;5039410;28;20017;-75
2021/04/24 06:37:57;;;;;;;3.08;2.75;;;7.10;99.90;;;;;;5033319;28;20029;-75
2021/04/24 06:40:24;;;;;;;2.53;2.30;;;7.40;99.90;;;;;;5041901;28;20482;-75
2021/04/24 06:42:50;;;;;;;2.42;2.22;;;7.50;99.90;;;;;;5039010;28;20395;-75
2021/04/24 06:45:16;;;;;;;2.65;1.95;;;7.70;99.90;;;;;;5033064;28;20156;-75
2021/04/24 06:47:42;;;;;;;4.60;2.13;;;7.70;99.90;;;;;;5035917;28;20505;-75
2021/04/24 06:50:10;;;;;;;3.90;2.50;;;7.90;99.90;;;;;;5031129;28;20029;-75
2021/04/24 06:52:36;;;;;;;2.50;2.13;;;8.00;99.90;;;;;;5046995;28;20035;-75
2021/04/24 06:55:03;;;;;;;2.35;2.15;;;8.20;99.90;;;;;;5052750;28;20029;-75
2021/04/24 06:57:29;;;;;;;3.28;2.30;;;8.30;99.90;;;;;;5040928;28;20017;-75
2021/04/24 06:59:55;;;;;;;3.28;1.98;;;8.60;99.90;;;;;;5039885;28;20108;-75
2021/04/24 07:02:21;;;;;;;3.42;1.60;;;8.70;99.90;;;;;;5035330;28;20060;-75
2021/04/24 07:04:46;;;;;;;4.07;1.80;;;8.80;99.90;;;;;;5041599;28;20545;-75
2021/04/24 07:07:12;;;;;;;3.15;1.90;;;9.00;99.90;;;;;;5033669;28;20079;-75
2021/04/24 07:09:38;;;;;;;2.50;1.55;;;9.20;99.90;;;;;;5032739;28;20025;-75
2021/04/24 07:12:05;;;;;;;2.33;1.65;;;9.40;99.90;;;;;;5033154;28;20376;-75
2021/04/24 07:14:31;;;;;;;2.45;1.85;;;9.60;99.90;;;;;;5031701;28;20391;-75
2021/04/24 07:16:57;;;;;;;2.47;1.80;;;9.80;99.90;;;;;;5030946;28;20027;-75
2021/04/24 07:19:23;;;;;;;2.20;2.10;;;10.00;99.90;;;;;;5035602;28;20499;-75
2021/04/24 07:21:49;;;;;;;1.65;1.48;;;10.20;99.90;;;;;;5043139;28;20495;-75
2021/04/24 07:24:17;;;;;;;4.00;2.08;;;10.40;99.90;;;;;;5043863;28;20059;-75
2021/04/24 07:26:42;;;;;;;1.58;1.48;;;10.70;99.90;;;;;;5039322;28;20448;-75
2021/04/24 07:29:08;;;;;;;2.10;1.67;;;10.90;99.90;;;;;;5036711;28;20116;-75
2021/04/24 07:31:35;;;;;;;5.63;1.90;;;11.10;99.90;;;;;;5037952;28;20071;-76
2021/04/24 07:34:01;;;;;;;6.07;3.92;;;11.30;99.90;;;;;;5030907;28;20048;-75
2021/04/24 07:36:28;;;;;;;5.15;3.30;;;11.40;96.40;;;;;;5034208;28;20029;-75
2021/04/24 07:38:55;;;;;;;4.65;2.53;;;11.80;96.40;;;;;;5034167;28;20110;-75
2021/04/24 07:41:22;;;;;;;2.35;1.48;;;12.00;92.70;;;;;;5039676;28;20021;-75
2021/04/24 07:43:47;;;;;;;4.03;2.10;;;12.20;91.20;;;;;;5050808;28;20033;-75
2021/04/24 07:46:13;;;;;;;4.00;2.00;;;12.40;87.50;;;;;;5052390;28;20122;-75
2021/04/24 07:48:39;;;;;;;3.25;2.20;;;12.70;90.80;;;;;;5037192;28;20426;-75
2021/04/24 07:51:05;;;;;;;4.75;3.25;;;12.90;90.70;;;;;;5035102;28;20391;-76
2021/04/24 07:53:30;;;;;;;2.72;2.50;;;13.00;85.00;;;;;;5046736;28;20056;-75
2021/04/24 07:55:56;;;;;;;2.08;1.58;;;13.30;85.80;;;;;;5052096;28;20463;-75
2021/04/24 07:58:22;;;;;;;4.60;2.65;;;13.60;78.20;;;;;;5045957;28;20025;-75
2021/04/24 08:00:48;;;;;;;6.05;2.60;;;13.80;85.00;;;;;;5041867;28;20041;-75
2021/04/24 08:03:13;;;;;;;11.30;5.55;;;14.20;84.30;;;;;;5031033;28;20041;-75
2021/04/24 08:05:39;;;;;;;3.88;2.70;;;14.50;80.90;;;;;;5032594;28;20120;-75
2021/04/24 08:08:05;;;;;;;10.07;3.90;;;14.80;74.50;;;;;;5044217;28;20053;-75
2021/04/24 08:10:31;;;;;;;2.83;1.00;;;15.50;65.70;;;;;;5034693;28;20037;-75
2021/04/24 08:12:59;;;;;;;2.00;1.10;;;16.40;59.20;;;;;;5033146;28;20013;-75
2021/04/24 08:15:28;;;;;;;3.92;0.93;;;16.60;57.50;;;;;;5049164;28;20021;-75
2021/04/24 08:17:54;;;;;;;2.88;2.08;;;17.00;59.60;;;;;;5036154;28;20029;-75
2021/04/24 08:20:20;;;;;;;5.70;3.03;;;17.20;56.80;;;;;;5045780;28;20513;-75
2021/04/24 08:22:46;;;;;;;7.22;3.50;;;17.40;55.00;;;;;;5037426;28;20037;-75
2021/04/24 08:25:12;;;;;;;2.60;1.63;;;17.60;52.80;;;;;;5048780;28;20079;-75
2021/04/24 08:27:38;;;;;;;1.50;1.02;;;17.70;52.60;;;;;;5037182;28;20061;-75
2021/04/24 08:30:08;;;;;;;3.55;1.40;;;17.90;56.30;;;;;;5052264;28;20068;-75
2021/04/24 08:32:35;;;;;;;1.73;1.10;;;18.00;52.70;;;;;;5045991;28;20530;-75
2021/04/24 08:35:01;;;;;;;1.13;0.90;;;18.20;54.30;;;;;;5033233;28;20033;-75
2021/04/24 08:37:27;;;;;;;1.63;1.10;;;18.40;52.90;;;;;;5040678;28;20361;-75
2021/04/24 08:39:52;;;;;;;1.67;0.90;;;18.70;53.30;;;;;;5035686;28;20025;-74
2021/04/24 08:42:19;;;;;;;1.70;1.60;;;18.60;52.50;;;;;;5035833;28;20445;-75
2021/04/24 08:44:48;;;;;;;1.20;0.80;;;18.90;54.30;;;;;;5040703;28;20059;-77
2021/04/24 08:47:14;;;;;;;1.60;1.50;;;19.00;51.30;;;;;;5038678;28;20029;-77
2021/04/24 08:49:41;;;;;;;2.00;1.10;;;19.00;52.10;;;;;;5035775;28;20094;-77
2021/04/24 08:52:07;;;;;;;2.05;1.33;;;19.00;51.00;;;;;;5043446;28;20033;-76
2021/04/24 08:54:33;;;;;;;1.20;1.10;;;19.30;50.50;;;;;;5035305;28;20044;-77
2021/04/24 08:56:58;;;;;;;11.82;1.20;;;19.40;50.10;;;;;;5044197;28;20029;-77
2021/04/24 08:59:24;;;;;;;1.58;1.40;;;19.50;49.80;;;;;;5035761;28;20033;-77
2021/04/24 09:01:50;;;;;;;1.67;1.08;;;19.70;49.40;;;;;;5032158;28;20072;-77
2021/04/24 09:04:17;;;;;;;1.17;1.08;;;19.80;46.70;;;;;;5041102;28;20049;-76
2021/04/24 09:06:44;;;;;;;1.98;1.10;;;19.80;47.00;;;;;;5036769;28;20566;-77
2021/04/24 09:09:11;;;;;;;1.30;1.17;;;20.10;48.00;;;;;;5040220;28;20021;-77
2021/04/24 09:11:47;;;;;;;1.88;1.40;;;20.20;45.90;;;;;;5042893;28;20018;-77
2021/04/24 09:14:16;;;;;;;1.23;1.13;;;20.40;46.80;;;;;;5039607;28;20029;-76
2021/04/24 09:16:43;;;;;;;3.70;1.70;;;20.40;45.80;;;;;;5031019;28;20116;-75
2021/04/24 09:19:29;;;;;;;1.65;1.30;;;20.50;47.70;;;;;;5043674;28;20043;-76
2021/04/24 09:22:10;;;;;;;3.67;1.48;;;20.80;46.50;;;;;;5041851;28;20091;-75
2021/04/24 09:24:37;;;;;;;1.75;1.60;;;21.00;46.60;;;;;;5048928;28;20029;-78
2021/04/24 09:27:03;;;;;;;2.90;1.30;;;20.80;45.90;;;;;;5045674;28;20033;-80
2021/04/24 09:29:28;;;;;;;1.63;1.50;;;22.50;45.90;;;;;;5038349;28;20041;-79
2021/04/24 09:32:17;;;;;;;1.50;1.40;;;25.40;40.70;;;;;;5046256;28;20025;-79
2021/04/24 09:34:47;;;;;;;1.80;1.70;;;27.10;38.80;;;;;;5040861;28;20489;-79
2021/04/24 09:37:18;;;;;;;4.10;2.10;;;27.90;37.80;;;;;;5036661;28;20491;-81
2021/04/24 09:39:50;;;;;;;2.58;1.80;;;27.40;37.00;;;;;;5039441;28;20029;-79
2021/04/24 09:42:34;;;;;;;2.70;1.67;;;27.70;38.70;;;;;;5043896;28;20112;-80
2021/04/24 09:45:00;;;;;;;4.18;2.28;;;28.60;37.60;;;;;;5045307;28;20082;-81
2021/04/24 09:47:43;;;;;;;2.75;1.90;;;29.00;36.20;;;;;;5044855;28;20678;-81
2021/04/24 09:50:16;;;;;;;1.85;1.58;;;28.80;36.00;;;;;;5040502;28;20487;-81
2021/04/24 09:52:43;;;;;;;3.22;2.00;;;29.80;36.20;;;;;;5045490;28;20029;-81
2021/04/24 09:55:36;;;;;;;2.45;2.08;;;29.40;34.70;;;;;;5033355;28;20037;-82
2021/04/24 09:58:04;;;;;;;1.88;1.77;;;29.30;34.10;;;;;;5032803;28;20388;-82
2021/04/24 10:00:30;;;;;;;2.53;1.88;;;29.10;34.50;;;;;;5044513;28;20045;-82
2021/04/24 10:02:56;;;;;;;1.88;1.77;;;29.30;34.30;;;;;;5033877;28;20107;-82
2021/04/24 10:05:24;;;;;;;2.15;2.05;;;30.70;35.40;;;;;;5042938;28;20544;-80
2021/04/24 10:07:55;;;;;;;1.75;1.65;;;30.80;33.60;;;;;;5045478;28;20399;-79
2021/04/24 10:10:23;;;;;;;16.58;2.88;;;30.40;32.90;;;;;;5035126;28;20059;-80
2021/04/24 10:13:03;;;;;;;1.95;1.80;;;30.50;32.80;;;;;;5037501;28;20021;-79
2021/04/24 10:15:44;;;;;;;4.53;1.70;;;30.30;32.70;;;;;;5051331;28;20112;-80
2021/04/24 10:18:13;;;;;;;2.55;2.25;;;31.80;32.20;;;;;;5054047;28;20025;-80
2021/04/24 10:20:40;;;;;;;2.50;1.90;;;31.70;31.50;;;;;;5054067;28;20037;-80
2021/04/24 10:23:08;;;;;;;2.35;2.25;;;32.40;32.00;;;;;;5053303;28;20029;-80
2021/04/24 10:25:35;;;;;;;4.32;2.28;;;32.40;31.60;;;;;;5053197;28;20100;-80
2021/04/24 10:28:01;;;;;;;2.75;1.98;;;33.00;32.00;;;;;;5053663;28;20028;-80
2021/04/24 10:30:27;;;;;;;2.55;2.38;;;32.80;30.20;;;;;;5052522;28;20028;-80
2021/04/24 10:32:54;;;;;;;2.20;2.10;;;34.70;30.40;;;;;;5053258;28;20087;-80
2021/04/24 10:35:21;;;;;;;2.53;2.15;;;35.30;29.80;;;;;;5053179;28;20040;-80
2021/04/24 10:37:49;;;;;;;2.00;1.90;;;33.70;29.90;;;;;;5053188;28;20112;-80
2021/04/24 10:40:15;;;;;;;2.25;2.15;;;33.30;30.10;;;;;;5052201;28;20021;-80
2021/04/24 10:42:50;;;;;;;3.22;2.30;;;34.50;29.20;;;;;;5052658;28;20394;-80
2021/04/24 10:45:26;;;;;;;2.15;1.90;;;34.50;29.80;;;;;;5053068;28;20018;-80
2021/04/24 10:47:53;;;;;;;1.92;1.83;;;34.40;31.90;;;;;;5053003;28;20025;-80
2021/04/24 10:50:47;;;;;;;2.33;2.17;;;34.20;30.60;;;;;;5052686;28;20028;-80
2021/04/24 10:53:29;;;;;;;2.05;1.95;;;33.40;29.10;;;;;;5052853;28;20035;-80
2021/04/24 10:55:57;;;;;;;2.30;1.85;;;33.90;29.10;;;;;;5052864;28;20021;-80
2021/04/24 10:58:25;;;;;;;2.40;2.20;;;34.00;28.50;;;;;;5037761;28;20061;-80
2021/04/24 11:01:06;;;;;;;1.95;1.77;;;33.90;28.80;;;;;;5032698;28;20053;-80
2021/04/24 11:03:35;;;;;;;2.20;2.00;;;34.30;30.00;;;;;;5031389;28;20486;-80
2021/04/24 11:06:27;;;;;;;2.72;2.30;;;34.00;29.10;;;;;;5031538;28;20029;-80
2021/04/24 11:09:18;;;;;;;4.10;2.30;;;35.00;29.50;;;;;;5032474;28;20511;-80
2021/04/24 11:11:47;;;;;;;2.22;2.13;;;35.20;28.80;;;;;;5032269;28;20494;-80
2021/04/24 11:14:13;;;;;;;2.33;2.22;;;35.50;29.00;;;;;;5032538;28;20021;-80
2021/04/24 11:16:45;;;;;;;2.20;2.10;;;35.20;29.20;;;;;;5032499;28;20395;-78
2021/04/24 11:19:10;;;;;;;2.47;2.38;;;35.90;29.10;;;;;;5031353;28;20029;-78
2021/04/24 11:21:37;;;;;;;2.33;2.17;;;36.30;28.80;;;;;;5032268;28;20126;-77
2021/04/24 11:24:12;;;;;;;2.67;2.47;;;36.20;30.20;;;;;;5032555;28;20395;-77
2021/04/24 11:26:40;;;;;;;2.30;2.20;;;36.00;28.30;;;;;;5032101;28;20029;-77
2021/04/24 11:29:10;;;;;;;2.95;2.40;;;36.60;28.40;;;;;;5032390;28;20037;-77
2021/04/24 11:32:14;;;;;;;8.77;4.43;;;37.30;28.90;;;;;;5030996;28;20063;-77
2021/04/24 11:34:48;;;;;;;3.90;3.63;;;39.40;29.10;;;;;;5031903;28;20099;-77
2021/04/24 11:37:35;;;;;;;2.60;2.50;;;38.70;28.60;;;;;;5032281;28;20028;-77
2021/04/24 11:40:08;;;;;;;3.08;2.30;;;37.70;28.90;;;;;;5032472;28;20064;-77
2021/04/24 11:42:37;;;;;;;2.22;2.13;;;37.60;28.20;;;;;;5031849;28;20057;-77
2021/04/24 11:45:15;;;;;;;2.87;2.67;;;37.60;29.40;;;;;;5032480;28;20036;-77
2021/04/24 11:47:43;;;;;;;2.97;2.40;;;39.00;27.70;;;;;;5031865;28;20276;-77
2021/04/24 11:50:14;;;;;;;3.10;2.40;;;38.40;28.50;;;;;;5030978;28;20084;-77
2021/04/24 11:52:51;;;;;;;2.80;2.60;;;37.60;27.40;;;;;;5034724;28;20061;-77
2021/04/24 11:55:19;;;;;;;2.88;2.33;;;37.20;28.10;;;;;;5035824;28;20064;-78
2021/04/24 11:57:46;;;;;;;2.17;2.07;;;37.20;27.70;;;;;;5034786;28;20033;-78
2021/04/24 12:00:14;;;;;;;3.50;2.60;;;36.70;28.00;;;;;;5036026;28;20042;-78
2021/04/24 12:02:46;;;;;;;2.50;2.38;;;36.40;28.60;;;;;;5036112;28;20045;-77
2021/04/24 12:05:12;;;;;;;2.45;2.25;;;36.80;28.00;;;;;;5035975;28;20077;-77
2021/04/24 12:07:40;;;;;;;2.92;2.72;;;37.30;28.40;;;;;;5035893;28;20033;-77
2021/04/24 12:10:06;;;;;;;2.33;2.22;;;37.70;29.00;;;;;;5035895;28;20030;-77
2021/04/24 12:12:38;;;;;;;3.60;2.90;;;38.20;28.80;;;;;;5035986;28;20033;-77
2021/04/24 12:15:19;;;;;;;2.95;2.50;;;37.10;29.50;;;;;;5035776;28;20028;-77
2021/04/24 12:17:56;;;;;;;2.83;2.45;;;37.30;28.70;;;;;;5034290;28;20022;-77
2021/04/24 12:20:24;;;;;;;2.78;2.58;;;37.40;29.30;;;;;;5035775;28;20071;-77
2021/04/24 12:22:51;;;;;;;2.60;2.50;;;36.80;28.60;;;;;;5035462;28;20387;-77
2021/04/24 12:25:20;;;;;;;2.40;2.30;;;36.00;28.80;;;;;;5035388;28;20034;-77
2021/04/24 12:27:48;;;;;;;4.03;2.10;;;36.80;29.70;;;;;;5035552;28;20031;-77
2021/04/24 12:30:18;;;;;;;2.47;2.28;;;37.50;28.60;;;;;;5035675;28;20223;-77
2021/04/24 12:32:54;;;;;;;2.88;2.67;;;37.10;28.20;;;;;;5035459;28;20072;-78
2021/04/24 12:35:26;;;;;;;2.80;2.60;;;36.50;28.60;;;;;;5035736;28;20395;-78
2021/04/24 12:38:02;;;;;;;2.55;2.35;;;36.90;29.30;;;;;;5035270;28;20022;-78
2021/04/24 12:40:29;;;;;;;2.28;2.17;;;35.90;28.70;;;;;;5035115;28;20038;-78
2021/04/24 12:43:08;;;;;;;2.80;2.60;;;36.00;29.40;;;;;;5035221;28;20025;-77
2021/04/24 12:45:37;;;;;;;3.65;2.35;;;35.60;29.20;;;;;;5035300;28;20036;-77
2021/04/24 12:48:05;;;;;;;2.20;2.10;;;35.30;28.10;;;;;;5035482;28;20041;-77
2021/04/24 12:50:38;;;;;;;2.80;2.60;;;36.10;28.90;;;;;;5035238;28;20487;-77
2021/04/24 12:53:05;;;;;;;21.95;4.30;;;35.60;27.80;;;;;;5035005;28;20049;-77
2021/04/24 12:55:42;;;;;;;3.72;2.47;;;35.30;27.90;;;;;;5035243;28;20021;-78
2021/04/24 12:58:11;;;;;;;2.67;1.95;;;35.70;28.60;;;;;;5035078;28;20022;-78